sensor_id;sensor_type;location;lat;lon;timestamp;pressure;altitude;pressure_sealevel;temperature;humidity
66164;BME280;52962;51.088;3.096;2023-03-01T00:01:53;102901.69;;;-0.71;100.00
66164;BME280;52962;51.088;3.096;2023-03-01T00:04:21;102894.22;;;-0.68;100.00
66164;BME280;52962;51.088;3.096;2023-03-01T00:06:50;102898.63;;;-0.67;100.00
66164;BME280;52962;51.088;3.096;2023-03-01T00:09:18;102893.47;;;-0.67;100.00
66164;BME280;52962;51.088;3.096;2023-03-01T00:11:47;102901.97;;;-0.68;100.00
66164;BME280;52962;51.088;3.096;2023-03-01T00:14:15;102902.91;;;-0.67;100.00
66164;BME280;52962;51.088;3.096;2023-03-01T00:16:45;102899.53;;;-0.66;100.00
66164;BME280;52962;51.088;3.096;2023-03-01T00:19:15;102893.47;;;-0.67;100.00
66164;BME280;52962;51.088;3.096;2023-03-01T00:21:44;102897.88;;;-0.66;100.00
66164;BME280;52962;51.088;3.096;2023-03-01T00:24:13;102901.53;;;-0.63;100.00
66164;BME280;52962;51.088;3.096;2023-03-01T00:26:42;102891.03;;;-0.65;100.00
66164;BME280;52962;51.088;3.096;2023-03-01T00:29:10;102894.81;;;-0.61;100.00
66164;BME280;52962;51.088;3.096;2023-03-01T00:31:38;102887.50;;;-0.57;100.00
66164;BME280;52962;51.088;3.096;2023-03-01T00:34:06;102886.59;;;-0.57;100.00
66164;BME280;52962;51.088;3.096;2023-03-01T00:36:36;102891.63;;;-0.59;100.00
66164;BME280;52962;51.088;3.096;2023-03-01T00:39:05;102884.00;;;-0.57;100.00
66164;BME280;52962;51.088;3.096;2023-03-01T00:41:36;102887.66;;;-0.55;100.00
66164;BME280;52962;51.088;3.096;2023-03-01T00:44:04;102877.88;;;-0.49;100.00
66164;BME280;52962;51.088;3.096;2023-03-01T00:46:35;102876.81;;;-0.43;100.00
66164;BME280;52962;51.088;3.096;2023-03-01T00:49:04;102885.50;;;-0.42;100.00
66164;BME280;52962;51.088;3.096;2023-03-01T00:51:32;102885.19;;;-0.45;100.00
66164;BME280;52962;51.088;3.096;2023-03-01T00:54:01;102872.72;;;-0.49;100.00
66164;BME280;52962;51.088;3.096;2023-03-01T00:56:30;102876.38;;;-0.47;100.00
66164;BME280;52962;51.088;3.096;2023-03-01T00:59:01;102870.56;;;-0.45;100.00
66164;BME280;52962;51.088;3.096;2023-03-01T01:01:30;102864.63;;;-0.44;100.00
66164;BME280;52962;51.088;3.096;2023-03-01T01:04:01;102876.97;;;-0.41;100.00
66164;BME280;52962;51.088;3.096;2023-03-01T01:06:31;102867.38;;;-0.42;100.00
66164;BME280;52962;51.088;3.096;2023-03-01T01:09:01;102878.00;;;-0.39;100.00
66164;BME280;52962;51.088;3.096;2023-03-01T01:11:30;102881.22;;;-0.42;100.00
66164;BME280;52962;51.088;3.096;2023-03-01T01:14:00;102875.13;;;-0.42;100.00
66164;BME280;52962;51.088;3.096;2023-03-01T01:16:29;102865.53;;;-0.43;100.00
66164;BME280;52962;51.088;3.096;2023-03-01T01:18:57;102869.97;;;-0.42;100.00
66164;BME280;52962;51.088;3.096;2023-03-01T01:21:27;102872.22;;;-0.37;100.00
66164;BME280;52962;51.088;3.096;2023-03-01T01:23:56;102868.09;;;-0.35;100.00
66164;BME280;52962;51.088;3.096;2023-03-01T01:26:26;102855.00;;;-0.36;100.00
66164;BME280;52962;51.088;3.096;2023-03-01T01:28:55;102859.56;;;-0.34;100.00
66164;BME280;52962;51.088;3.096;2023-03-01T01:31:26;102852.44;;;-0.36;100.00
66164;BME280;52962;51.088;3.096;2023-03-01T01:33:56;102855.63;;;-0.39;100.00
66164;BME280;52962;51.088;3.096;2023-03-01T01:36:24;102850.31;;;-0.40;100.00
66164;BME280;52962;51.088;3.096;2023-03-01T01:38:53;102847.25;;;-0.36;100.00
66164;BME280;52962;51.088;3.096;2023-03-01T01:41:22;102842.06;;;-0.36;100.00
66164;BME280;52962;51.088;3.096;2023-03-01T01:44:14;102842.22;;;-0.35;100.00
66164;BME280;52962;51.088;3.096;2023-03-01T01:46:46;102853.34;;;-0.36;100.00
66164;BME280;52962;51.088;3.096;2023-03-01T01:49:25;102838.28;;;-0.40;100.00
66164;BME280;52962;51.088;3.096;2023-03-01T01:52:00;102829.16;;;-0.45;100.00
66164;BME280;52962;51.088;3.096;2023-03-01T01:54:30;102827.81;;;-0.50;100.00
66164;BME280;52962;51.088;3.096;2023-03-01T01:57:01;102829.47;;;-0.50;100.00
66164;BME280;52962;51.088;3.096;2023-03-01T01:59:31;102825.69;;;-0.54;100.00
66164;BME280;52962;51.088;3.096;2023-03-01T02:02:03;102825.53;;;-0.55;100.00
66164;BME280;52962;51.088;3.096;2023-03-01T02:04:32;102820.81;;;-0.59;100.00
66164;BME280;52962;51.088;3.096;2023-03-01T02:07:04;102819.00;;;-0.60;100.00
66164;BME280;52962;51.088;3.096;2023-03-01T02:09:34;102818.84;;;-0.62;100.00
66164;BME280;52962;51.088;3.096;2023-03-01T02:12:04;102816.75;;;-0.66;100.00
66164;BME280;52962;51.088;3.096;2023-03-01T02:14:33;102814.00;;;-0.68;100.00
66164;BME280;52962;51.088;3.096;2023-03-01T02:17:03;102814.63;;;-0.70;100.00
66164;BME280;52962;51.088;3.096;2023-03-01T02:19:40;102813.56;;;-0.72;100.00
66164;BME280;52962;51.088;3.096;2023-03-01T02:22:19;102809.28;;;-0.72;100.00
66164;BME280;52962;51.088;3.096;2023-03-01T02:24:57;102808.53;;;-0.71;100.00
66164;BME280;52962;51.088;3.096;2023-03-01T02:27:34;102806.72;;;-0.72;100.00
66164;BME280;52962;51.088;3.096;2023-03-01T02:30:07;102805.94;;;-0.71;100.00
66164;BME280;52962;51.088;3.096;2023-03-01T02:32:39;102797.13;;;-0.73;100.00
66164;BME280;52962;51.088;3.096;2023-03-01T02:35:09;102797.88;;;-0.74;100.00
66164;BME280;52962;51.088;3.096;2023-03-01T02:37:41;102790.88;;;-0.75;100.00
66164;BME280;52962;51.088;3.096;2023-03-01T02:40:13;102791.66;;;-0.76;100.00
66164;BME280;52962;51.088;3.096;2023-03-01T02:42:47;102790.88;;;-0.75;100.00
66164;BME280;52962;51.088;3.096;2023-03-01T02:45:19;102791.81;;;-0.74;100.00
66164;BME280;52962;51.088;3.096;2023-03-01T02:47:47;102792.41;;;-0.77;100.00
66164;BME280;52962;51.088;3.096;2023-03-01T02:50:24;102775.06;;;-0.78;100.00
66164;BME280;52962;51.088;3.096;2023-03-01T02:52:57;102778.41;;;-0.79;100.00
66164;BME280;52962;51.088;3.096;2023-03-01T02:55:30;102785.41;;;-0.78;100.00
66164;BME280;52962;51.088;3.096;2023-03-01T02:58:01;102785.41;;;-0.78;100.00
66164;BME280;52962;51.088;3.096;2023-03-01T03:00:36;102778.13;;;-0.82;100.00
66164;BME280;52962;51.088;3.096;2023-03-01T03:03:07;102764.59;;;-0.88;100.00
66164;BME280;52962;51.088;3.096;2023-03-01T03:05:35;102767.19;;;-0.88;100.00
66164;BME280;52962;51.088;3.096;2023-03-01T03:08:04;102764.13;;;-0.84;100.00
66164;BME280;52962;51.088;3.096;2023-03-01T03:10:37;102762.31;;;-0.85;100.00
66164;BME280;52962;51.088;3.096;2023-03-01T03:13:08;102760.16;;;-0.80;100.00
66164;BME280;52962;51.088;3.096;2023-03-01T03:15:38;102765.94;;;-0.83;100.00
66164;BME280;52962;51.088;3.096;2023-03-01T03:18:10;102762.00;;;-0.88;100.00
66164;BME280;52962;51.088;3.096;2023-03-01T03:20:39;102759.13;;;-0.91;100.00
66164;BME280;52962;51.088;3.096;2023-03-01T03:23:08;102761.72;;;-0.91;100.00
66164;BME280;52962;51.088;3.096;2023-03-01T03:25:36;102759.13;;;-0.91;100.00
66164;BME280;52962;51.088;3.096;2023-03-01T03:28:06;102758.06;;;-0.93;100.00
66164;BME280;52962;51.088;3.096;2023-03-01T03:30:40;102755.63;;;-0.91;100.00
66164;BME280;52962;51.088;3.096;2023-03-01T03:33:08;102748.78;;;-0.91;100.00
66164;BME280;52962;51.088;3.096;2023-03-01T03:35:41;102755.00;;;-0.89;100.00
66164;BME280;52962;51.088;3.096;2023-03-01T03:38:11;102755.59;;;-0.83;100.00
66164;BME280;52962;51.088;3.096;2023-03-01T03:40:44;102762.13;;;-0.78;100.00
66164;BME280;52962;51.088;3.096;2023-03-01T03:43:15;102752.72;;;-0.86;100.00
66164;BME280;52962;51.088;3.096;2023-03-01T03:45:46;102748.78;;;-0.91;100.00
66164;BME280;52962;51.088;3.096;2023-03-01T03:48:14;102751.06;;;-0.94;100.00
66164;BME280;52962;51.088;3.096;2023-03-01T03:50:47;102748.19;;;-0.97;100.00
66164;BME280;52962;51.088;3.096;2023-03-01T03:53:16;102744.53;;;-0.99;100.00
66164;BME280;52962;51.088;3.096;2023-03-01T03:55:44;102744.69;;;-0.98;100.00
66164;BME280;52962;51.088;3.096;2023-03-01T03:58:16;102744.06;;;-0.95;100.00
66164;BME280;52962;51.088;3.096;2023-03-01T04:00:50;102734.78;;;-0.93;100.00
66164;BME280;52962;51.088;3.096;2023-03-01T04:03:19;102747.88;;;-0.91;100.00
66164;BME280;52962;51.088;3.096;2023-03-01T04:05:47;102747.88;;;-0.91;100.00
66164;BME280;52962;51.088;3.096;2023-03-01T04:08:18;102751.66;;;-0.88;100.00
66164;BME280;52962;51.088;3.096;2023-03-01T04:10:49;102747.09;;;-0.90;100.00
66164;BME280;52962;51.088;3.096;2023-03-01T04:13:19;102750.59;;;-0.90;100.00
66164;BME280;52962;51.088;3.096;2023-03-01T04:15:49;102749.53;;;-0.92;100.00
66164;BME280;52962;51.088;3.096;2023-03-01T04:18:19;102751.97;;;-0.93;100.00
66164;BME280;52962;51.088;3.096;2023-03-01T04:20:47;102749.25;;;-0.95;100.00
66164;BME280;52962;51.088;3.096;2023-03-01T04:23:20;102749.25;;;-0.95;100.00
66164;BME280;52962;51.088;3.096;2023-03-01T04:25:50;102744.06;;;-0.95;100.00
66164;BME280;52962;51.088;3.096;2023-03-01T04:28:25;102745.91;;;-0.94;100.00
66164;BME280;52962;51.088;3.096;2023-03-01T04:30:57;102739.81;;;-0.94;100.00
66164;BME280;52962;51.088;3.096;2023-03-01T04:33:27;102737.84;;;-0.97;100.00
66164;BME280;52962;51.088;3.096;2023-03-01T04:35:55;102735.25;;;-0.97;100.00
66164;BME280;52962;51.088;3.096;2023-03-01T04:38:24;102733.16;;;-1.01;100.00
66164;BME280;52962;51.088;3.096;2023-03-01T04:40:52;102737.00;;;-1.06;100.00
66164;BME280;52962;51.088;3.096;2023-03-01T04:43:20;102738.38;;;-1.10;100.00
66164;BME280;52962;51.088;3.096;2023-03-01T04:45:49;102736.53;;;-1.11;100.00
66164;BME280;52962;51.088;3.096;2023-03-01T04:48:18;102745.38;;;-1.09;100.00
66164;BME280;52962;51.088;3.096;2023-03-01T04:50:46;102742.63;;;-1.10;100.00
66164;BME280;52962;51.088;3.096;2023-03-01T04:53:14;102733.06;;;-1.20;100.00
66164;BME280;52962;51.088;3.096;2023-03-01T04:55:42;102735.34;;;-1.23;100.00
66164;BME280;52962;51.088;3.096;2023-03-01T04:58:10;102730.47;;;-1.20;100.00
66164;BME280;52962;51.088;3.096;2023-03-01T05:00:39;102725.47;;;-1.18;100.00
66164;BME280;52962;51.088;3.096;2023-03-01T05:03:08;102722.88;;;-1.18;100.00
66164;BME280;52962;51.088;3.096;2023-03-01T05:05:38;102725.16;;;-1.13;100.00
66164;BME280;52962;51.088;3.096;2023-03-01T05:08:07;102720.88;;;-1.12;100.00
66164;BME280;52962;51.088;3.096;2023-03-01T05:10:45;102722.72;;;-1.11;100.00
66164;BME280;52962;51.088;3.096;2023-03-01T05:13:13;102719.34;;;-1.10;100.00
66164;BME280;52962;51.088;3.096;2023-03-01T05:15:48;102722.09;;;-1.09;100.00
66164;BME280;52962;51.088;3.096;2023-03-01T05:18:16;102714.94;;;-1.11;100.00
66164;BME280;52962;51.088;3.096;2023-03-01T05:20:46;102720.13;;;-1.11;100.00
66164;BME280;52962;51.088;3.096;2023-03-01T05:23:14;102718.16;;;-1.14;100.00
66164;BME280;52962;51.088;3.096;2023-03-01T05:25:42;102710.25;;;-1.15;100.00
66164;BME280;52962;51.088;3.096;2023-03-01T05:28:11;102704.94;;;-1.17;100.00
66164;BME280;52962;51.088;3.096;2023-03-01T05:30:40;102712.06;;;-1.14;100.00
66164;BME280;52962;51.088;3.096;2023-03-01T05:33:08;102702.34;;;-1.17;100.00
66164;BME280;52962;51.088;3.096;2023-03-01T05:35:41;102702.50;;;-1.15;100.00
66164;BME280;52962;51.088;3.096;2023-03-01T05:38:12;102696.41;;;-1.16;100.00
66164;BME280;52962;51.088;3.096;2023-03-01T05:40:41;102704.16;;;-1.16;100.00
66164;BME280;52962;51.088;3.096;2023-03-01T05:43:10;102692.63;;;-1.19;100.00
66164;BME280;52962;51.088;3.096;2023-03-01T05:45:39;102689.41;;;-1.17;100.00
66164;BME280;52962;51.088;3.096;2023-03-01T05:48:08;102686.97;;;-1.15;100.00
66164;BME280;52962;51.088;3.096;2023-03-01T05:50:39;102681.94;;;-1.14;100.00
66164;BME280;52962;51.088;3.096;2023-03-01T05:53:11;102675.72;;;-1.16;100.00
66164;BME280;52962;51.088;3.096;2023-03-01T05:55:40;102667.81;;;-1.17;100.00
66164;BME280;52962;51.088;3.096;2023-03-01T05:58:10;102664.19;;;-1.19;100.00
66164;BME280;52962;51.088;3.096;2023-03-01T06:00:41;102670.88;;;-1.21;100.00
66164;BME280;52962;51.088;3.096;2023-03-01T06:03:09;102664.63;;;-1.23;100.00
66164;BME280;52962;51.088;3.096;2023-03-01T06:05:38;102657.03;;;-1.22;100.00
66164;BME280;52962;51.088;3.096;2023-03-01T06:08:06;102655.50;;;-1.20;100.00
66164;BME280;52962;51.088;3.096;2023-03-01T06:10:36;102653.84;;;-1.19;100.00
66164;BME280;52962;51.088;3.096;2023-03-01T06:13:05;102662.03;;;-1.15;100.00
66164;BME280;52962;51.088;3.096;2023-03-01T06:15:33;102662.03;;;-1.15;100.00
66164;BME280;52962;51.088;3.096;2023-03-01T06:18:01;102669.94;;;-1.13;100.00
66164;BME280;52962;51.088;3.096;2023-03-01T06:20:29;102675.09;;;-1.13;100.00
66164;BME280;52962;51.088;3.096;2023-03-01T06:22:57;102672.66;;;-1.12;100.00
66164;BME280;52962;51.088;3.096;2023-03-01T06:25:27;102679.50;;;-1.12;100.00
66164;BME280;52962;51.088;3.096;2023-03-01T06:27:57;102687.28;;;-1.12;100.00
66164;BME280;52962;51.088;3.096;2023-03-01T06:30:26;102691.53;;;-1.13;100.00
66164;BME280;52962;51.088;3.096;2023-03-01T06:32:54;102683.63;;;-1.14;100.00
66164;BME280;52962;51.088;3.096;2023-03-01T06:35:28;102688.50;;;-1.17;100.00
66164;BME280;52962;51.088;3.096;2023-03-01T06:37:58;102690.78;;;-1.20;100.00
66164;BME280;52962;51.088;3.096;2023-03-01T06:40:26;102689.13;;;-1.20;100.00
66164;BME280;52962;51.088;3.096;2023-03-01T06:42:54;102686.69;;;-1.18;100.00
66164;BME280;52962;51.088;3.096;2023-03-01T06:45:24;102689.41;;;-1.17;100.00
66164;BME280;52962;51.088;3.096;2023-03-01T06:47:57;102687.88;;;-1.15;100.00
66164;BME280;52962;51.088;3.096;2023-03-01T06:50:28;102687.56;;;-1.09;100.00
66164;BME280;52962;51.088;3.096;2023-03-01T06:52:57;102684.38;;;-1.07;100.00
66164;BME280;52962;51.088;3.096;2023-03-01T06:55:25;102680.81;;;-0.99;100.00
66164;BME280;52962;51.088;3.096;2023-03-01T06:57:54;102691.44;;;-0.95;100.00
66164;BME280;52962;51.088;3.096;2023-03-01T07:00:26;102685.94;;;-0.90;100.00
66164;BME280;52962;51.088;3.096;2023-03-01T07:02:54;102680.59;;;-0.83;100.00
66164;BME280;52962;51.088;3.096;2023-03-01T07:05:22;102681.94;;;-0.78;100.00
66164;BME280;52962;51.088;3.096;2023-03-01T07:07:50;102681.75;;;-0.71;100.00
66164;BME280;52962;51.088;3.096;2023-03-01T07:10:19;102681.28;;;-0.67;100.00
66164;BME280;52962;51.088;3.096;2023-03-01T07:12:47;102679.75;;;-0.64;100.00
66164;BME280;52962;51.088;3.096;2023-03-01T07:15:15;102683.38;;;-0.62;100.00
66164;BME280;52962;51.088;3.096;2023-03-01T07:17:45;102680.94;;;-0.61;100.00
66164;BME280;52962;51.088;3.096;2023-03-01T07:20:14;102683.06;;;-0.57;100.00
66164;BME280;52962;51.088;3.096;2023-03-01T07:22:42;102686.06;;;-0.52;100.00
66164;BME280;52962;51.088;3.096;2023-03-01T07:25:11;102686.66;;;-0.46;100.00
66164;BME280;52962;51.088;3.096;2023-03-01T07:27:39;102684.91;;;-0.37;100.00
66164;BME280;52962;51.088;3.096;2023-03-01T07:30:08;102686.25;;;-0.32;100.00
66164;BME280;52962;51.088;3.096;2023-03-01T07:32:36;102686.69;;;-0.27;100.00
66164;BME280;52962;51.088;3.096;2023-03-01T07:35:07;102678.84;;;-0.19;100.00
66164;BME280;52962;51.088;3.096;2023-03-01T07:37:35;102683.06;;;-0.11;100.00
66164;BME280;52962;51.088;3.096;2023-03-01T07:40:04;102689.59;;;-0.06;100.00
66164;BME280;52962;51.088;3.096;2023-03-01T07:42:32;102685.75;;;-0.01;100.00
66164;BME280;52962;51.088;3.096;2023-03-01T07:45:00;102676.81;;;0.06;100.00
66164;BME280;52962;51.088;3.096;2023-03-01T07:47:28;102680.09;;;0.14;100.00
66164;BME280;52962;51.088;3.096;2023-03-01T07:49:56;102688.44;;;0.20;100.00
66164;BME280;52962;51.088;3.096;2023-03-01T07:52:26;102675.75;;;0.23;100.00
66164;BME280;52962;51.088;3.096;2023-03-01T07:54:54;102678.63;;;0.26;100.00
66164;BME280;52962;51.088;3.096;2023-03-01T07:57:22;102686.97;;;0.32;100.00
66164;BME280;52962;51.088;3.096;2023-03-01T07:59:50;102677.91;;;0.37;100.00
66164;BME280;52962;51.088;3.096;2023-03-01T08:02:18;102674.84;;;0.41;100.00
66164;BME280;52962;51.088;3.096;2023-03-01T08:04:46;102672.50;;;0.44;100.00
66164;BME280;52962;51.088;3.096;2023-03-01T08:07:14;102679.16;;;0.51;100.00
66164;BME280;52962;51.088;3.096;2023-03-01T08:09:44;102667.38;;;0.54;100.00
66164;BME280;52962;51.088;3.096;2023-03-01T08:12:12;102665.19;;;0.59;100.00
66164;BME280;52962;51.088;3.096;2023-03-01T08:14:40;102661.34;;;0.64;100.00
66164;BME280;52962;51.088;3.096;2023-03-01T08:17:08;102666.78;;;0.67;100.00
66164;BME280;52962;51.088;3.096;2023-03-01T08:19:37;102657.88;;;0.74;100.00
66164;BME280;52962;51.088;3.096;2023-03-01T08:22:05;102661.78;;;0.79;100.00
66164;BME280;52962;51.088;3.096;2023-03-01T08:24:33;102661.28;;;0.83;100.00
66164;BME280;52962;51.088;3.096;2023-03-01T08:27:03;102661.69;;;0.87;100.00
66164;BME280;52962;51.088;3.096;2023-03-01T08:29:31;102658.72;;;0.93;100.00
66164;BME280;52962;51.088;3.096;2023-03-01T08:32:00;102661.22;;;1.02;100.00
66164;BME280;52962;51.088;3.096;2023-03-01T08:34:28;102650.56;;;1.09;100.00
66164;BME280;52962;51.088;3.096;2023-03-01T08:36:58;102646.16;;;1.18;100.00
66164;BME280;52962;51.088;3.096;2023-03-01T08:39:26;102648.66;;;1.26;100.00
66164;BME280;52962;51.088;3.096;2023-03-01T08:41:54;102648.53;;;1.35;100.00
66164;BME280;52962;51.088;3.096;2023-03-01T08:44:24;102650.88;;;1.42;100.00
66164;BME280;52962;51.088;3.096;2023-03-01T08:46:53;102642.06;;;1.50;100.00
66164;BME280;52962;51.088;3.096;2023-03-01T08:49:22;102647.00;;;1.57;100.00
66164;BME280;52962;51.088;3.096;2023-03-01T08:51:50;102644.91;;;1.63;100.00
66164;BME280;52962;51.088;3.096;2023-03-01T08:54:20;102650.50;;;1.68;100.00
66164;BME280;52962;51.088;3.096;2023-03-01T08:56:49;102645.19;;;1.77;100.00
66164;BME280;52962;51.088;3.096;2023-03-01T08:59:17;102657.00;;;1.83;100.00
66164;BME280;52962;51.088;3.096;2023-03-01T09:01:47;102642.69;;;1.88;100.00
66164;BME280;52962;51.088;3.096;2023-03-01T09:04:15;102647.63;;;1.95;100.00
66164;BME280;52962;51.088;3.096;2023-03-01T09:06:43;102649.19;;;2.04;100.00
66164;BME280;52962;51.088;3.096;2023-03-01T09:09:13;102647.06;;;2.10;100.00
66164;BME280;52962;51.088;3.096;2023-03-01T09:11:43;102635.34;;;2.15;100.00
66164;BME280;52962;51.088;3.096;2023-03-01T09:14:12;102629.88;;;2.22;100.00
66164;BME280;52962;51.088;3.096;2023-03-01T09:16:41;102636.34;;;2.27;100.00
66164;BME280;52962;51.088;3.096;2023-03-01T09:19:10;102628.16;;;2.33;100.00
66164;BME280;52962;51.088;3.096;2023-03-01T09:21:39;102629.44;;;2.38;100.00
66164;BME280;52962;51.088;3.096;2023-03-01T09:24:13;102629.94;;;2.44;100.00
66164;BME280;52962;51.088;3.096;2023-03-01T09:26:42;102633.69;;;2.47;100.00
66164;BME280;52962;51.088;3.096;2023-03-01T09:29:14;102632.50;;;2.54;100.00
66164;BME280;52962;51.088;3.096;2023-03-01T09:31:42;102618.97;;;2.58;100.00
66164;BME280;52962;51.088;3.096;2023-03-01T09:34:12;102620.13;;;2.61;100.00
66164;BME280;52962;51.088;3.096;2023-03-01T09:36:42;102624.13;;;2.68;100.00
66164;BME280;52962;51.088;3.096;2023-03-01T09:39:11;102616.81;;;2.74;100.00
66164;BME280;52962;51.088;3.096;2023-03-01T09:41:45;102617.16;;;2.79;100.00
66164;BME280;52962;51.088;3.096;2023-03-01T09:44:21;102602.59;;;2.81;100.00
66164;BME280;52962;51.088;3.096;2023-03-01T09:46:52;102604.66;;;2.85;100.00
66164;BME280;52962;51.088;3.096;2023-03-01T09:49:23;102606.72;;;2.89;100.00
66164;BME280;52962;51.088;3.096;2023-03-01T09:51:56;102600.16;;;2.94;100.00
66164;BME280;52962;51.088;3.096;2023-03-01T09:54:25;102597.03;;;2.98;100.00
66164;BME280;52962;51.088;3.096;2023-03-01T09:57:02;102594.31;;;2.97;100.00
66164;BME280;52962;51.088;3.096;2023-03-01T09:59:46;102588.44;;;2.99;100.00
66164;BME280;52962;51.088;3.096;2023-03-01T10:02:24;102590.06;;;3.09;100.00
66164;BME280;52962;51.088;3.096;2023-03-01T10:05:03;102571.25;;;3.13;100.00
66164;BME280;52962;51.088;3.096;2023-03-01T10:07:41;102571.25;;;3.13;100.00
66164;BME280;52962;51.088;3.096;2023-03-01T10:10:26;102570.56;;;3.15;100.00
66164;BME280;52962;51.088;3.096;2023-03-01T10:12:56;102563.47;;;3.24;100.00
66164;BME280;52962;51.088;3.096;2023-03-01T10:15:30;102565.22;;;3.36;100.00
66164;BME280;52962;51.088;3.096;2023-03-01T10:18:02;102558.97;;;3.34;100.00
66164;BME280;52962;51.088;3.096;2023-03-01T10:20:42;102562.84;;;3.39;100.00
66164;BME280;52962;51.088;3.096;2023-03-01T10:23:12;102561.63;;;3.45;100.00
66164;BME280;52962;51.088;3.096;2023-03-01T10:25:47;102560.38;;;3.52;100.00
66164;BME280;52962;51.088;3.096;2023-03-01T10:28:26;102557.66;;;3.50;100.00
66164;BME280;52962;51.088;3.096;2023-03-01T10:30:57;102553.59;;;3.54;100.00
66164;BME280;52962;51.088;3.096;2023-03-01T10:33:30;102546.00;;;3.57;100.00
66164;BME280;52962;51.088;3.096;2023-03-01T10:36:01;102550.44;;;3.58;100.00
66164;BME280;52962;51.088;3.096;2023-03-01T10:38:31;102556.66;;;3.60;100.00
66164;BME280;52962;51.088;3.096;2023-03-01T10:41:14;102541.59;;;3.68;100.00
66164;BME280;52962;51.088;3.096;2023-03-01T10:43:45;102534.69;;;3.68;100.00
66164;BME280;52962;51.088;3.096;2023-03-01T10:46:25;102534.47;;;3.77;100.00
66164;BME280;52962;51.088;3.096;2023-03-01T10:49:12;102529.03;;;3.85;100.00
66164;BME280;52962;51.088;3.096;2023-03-01T10:51:44;102531.19;;;3.91;100.00
66164;BME280;52962;51.088;3.096;2023-03-01T10:54:18;102517.47;;;3.93;100.00
66164;BME280;52962;51.088;3.096;2023-03-01T10:56:49;102517.03;;;3.99;100.00
66164;BME280;52962;51.088;3.096;2023-03-01T10:59:26;102526.31;;;4.07;100.00
66164;BME280;52962;51.088;3.096;2023-03-01T11:02:12;102518.28;;;4.04;100.00
66164;BME280;52962;51.088;3.096;2023-03-01T11:04:59;102518.38;;;4.06;100.00
66164;BME280;52962;51.088;3.096;2023-03-01T11:07:29;102518.50;;;4.07;100.00
66164;BME280;52962;51.088;3.096;2023-03-01T11:09:57;102515.66;;;4.16;100.00
66164;BME280;52962;51.088;3.096;2023-03-01T11:12:25;102518.78;;;4.23;100.00
66164;BME280;52962;51.088;3.096;2023-03-01T11:14:57;102511.06;;;4.25;100.00
66164;BME280;52962;51.088;3.096;2023-03-01T11:17:28;102510.94;;;4.35;100.00
66164;BME280;52962;51.088;3.096;2023-03-01T11:20:16;102506.03;;;4.51;100.00
66164;BME280;52962;51.088;3.096;2023-03-01T11:22:53;102498.75;;;4.84;100.00
66164;BME280;52962;51.088;3.096;2023-03-01T11:25:25;102496.34;;;5.12;100.00
66164;BME280;52962;51.088;3.096;2023-03-01T11:27:54;102506.91;;;5.26;100.00
66164;BME280;52962;51.088;3.096;2023-03-01T11:30:28;102496.69;;;5.43;100.00
66164;BME280;52962;51.088;3.096;2023-03-01T11:33:10;102484.94;;;5.49;100.00
66164;BME280;52962;51.088;3.096;2023-03-01T11:35:42;102481.13;;;5.57;100.00
66164;BME280;52962;51.088;3.096;2023-03-01T11:38:20;102484.66;;;5.71;100.00
66164;BME280;52962;51.088;3.096;2023-03-01T11:40:54;102473.19;;;5.82;100.00
66164;BME280;52962;51.088;3.096;2023-03-01T11:43:30;58706.69;;;-145.67;100.00
66164;BME280;52962;51.088;3.096;2023-03-01T11:49:00;58706.69;;;-145.67;100.00
66164;BME280;52962;51.088;3.096;2023-03-01T11:51:41;58706.69;;;-145.67;100.00
66164;BME280;52962;51.088;3.096;2023-03-01T11:54:21;102470.75;;;6.25;100.00
66164;BME280;52962;51.088;3.096;2023-03-01T11:56:57;102470.75;;;6.25;100.00
66164;BME280;52962;51.088;3.096;2023-03-01T12:03:15;102450.56;;;6.22;100.00
66164;BME280;52962;51.088;3.096;2023-03-01T12:06:12;102448.00;;;6.24;100.00
66164;BME280;52962;51.088;3.096;2023-03-01T12:09:00;102450.56;;;6.22;100.00
66164;BME280;52962;51.088;3.096;2023-03-01T12:11:41;102443.50;;;6.21;100.00
66164;BME280;52962;51.088;3.096;2023-03-01T12:14:27;102451.97;;;6.17;100.00
66164;BME280;52962;51.088;3.096;2023-03-01T12:20:17;102425.66;;;6.01;100.00
66164;BME280;52962;51.088;3.096;2023-03-01T12:22:57;102417.97;;;6.17;100.00
66164;BME280;52962;51.088;3.096;2023-03-01T12:25:48;102416.53;;;6.22;100.00
66164;BME280;52962;51.088;3.096;2023-03-01T12:28:43;102417.69;;;6.28;100.00
66164;BME280;52962;51.088;3.096;2023-03-01T12:31:36;102407.88;;;6.23;100.00
66164;BME280;52962;51.088;3.096;2023-03-01T12:34:22;102403.28;;;6.19;100.00
66164;BME280;52962;51.088;3.096;2023-03-01T12:39:57;102388.59;;;6.08;100.00
66164;BME280;52962;51.088;3.096;2023-03-01T12:42:38;102379.56;;;6.03;100.00
66164;BME280;52962;51.088;3.096;2023-03-01T12:45:34;102377.56;;;5.99;100.00
66164;BME280;52962;51.088;3.096;2023-03-01T12:48:09;102367.81;;;5.97;100.00
66164;BME280;52962;51.088;3.096;2023-03-01T12:50:47;102366.72;;;5.93;100.00
66164;BME280;52962;51.088;3.096;2023-03-01T12:53:23;102360.78;;;5.96;100.00
66164;BME280;52962;51.088;3.096;2023-03-01T12:55:52;102363.59;;;5.99;100.00
66164;BME280;52962;51.088;3.096;2023-03-01T12:58:25;102358.97;;;5.95;100.00
66164;BME280;52962;51.088;3.096;2023-03-01T13:01:16;102369.09;;;6.03;100.00
66164;BME280;52962;51.088;3.096;2023-03-01T13:04:10;102373.09;;;6.11;100.00
66164;BME280;52962;51.088;3.096;2023-03-01T13:06:44;102370.59;;;6.13;100.00
66164;BME280;52962;51.088;3.096;2023-03-01T13:09:18;102372.50;;;6.15;100.00
66164;BME280;52962;51.088;3.096;2023-03-01T13:11:48;102364.13;;;6.21;100.00
66164;BME280;52962;51.088;3.096;2023-03-01T13:14:35;102361.75;;;6.11;100.00
66164;BME280;52962;51.088;3.096;2023-03-01T13:17:29;102360.31;;;6.16;100.00
66164;BME280;52962;51.088;3.096;2023-03-01T13:19:58;102359.50;;;6.17;100.00